createdAt,value
2023-05-12T00:01:17.022Z,100.00
2023-05-12T00:03:43.755Z,100.00
2023-05-12T00:06:11.295Z,100.00
2023-05-12T00:08:38.118Z,100.00
2023-05-12T00:11:04.622Z,100.00
2023-05-12T00:13:31.137Z,100.00
2023-05-12T00:15:58.967Z,100.00
2023-05-12T00:18:28.229Z,100.00
2023-05-12T00:20:55.598Z,100.00
2023-05-12T00:23:22.921Z,100.00
2023-05-12T00:25:49.940Z,100.00
2023-05-12T00:28:17.778Z,100.00
2023-05-12T00:30:44.476Z,100.00
2023-05-12T00:33:11.090Z,100.00
2023-05-12T00:35:37.598Z,100.00
2023-05-12T00:38:04.133Z,100.00
2023-05-12T00:40:31.009Z,100.00
2023-05-12T00:42:57.621Z,100.00
2023-05-12T00:45:24.385Z,100.00
2023-05-12T00:47:52.300Z,100.00
2023-05-12T00:50:19.182Z,100.00
2023-05-12T00:52:47.127Z,100.00
2023-05-12T00:55:13.754Z,100.00
2023-05-12T00:57:41.704Z,100.00
2023-05-12T01:00:08.974Z,100.00
2023-05-12T01:02:37.716Z,100.00
2023-05-12T01:05:04.880Z,100.00
2023-05-12T01:07:33.103Z,100.00
2023-05-12T01:10:00.825Z,100.00
2023-05-12T01:12:32.128Z,100.00
2023-05-12T01:14:59.436Z,100.00
2023-05-12T01:17:36.085Z,100.00
2023-05-12T01:20:07.285Z,100.00
2023-05-12T01:22:35.854Z,100.00
2023-05-12T01:25:05.353Z,100.00
2023-05-12T01:27:33.490Z,100.00
2023-05-12T01:30:02.225Z,100.00
2023-05-12T01:32:32.609Z,100.00
2023-05-12T01:34:59.258Z,100.00
2023-05-12T01:37:26.934Z,100.00
2023-05-12T01:39:54.703Z,100.00
2023-05-12T01:42:21.490Z,100.00
2023-05-12T01:44:48.896Z,100.00
2023-05-12T01:47:16.004Z,100.00
2023-05-12T01:49:48.476Z,100.00
2023-05-12T01:52:16.190Z,100.00
2023-05-12T01:54:42.716Z,100.00
2023-05-12T01:57:10.912Z,100.00
2023-05-12T01:59:38.537Z,100.00
2023-05-12T02:02:06.461Z,100.00
2023-05-12T02:04:34.515Z,100.00
2023-05-12T02:07:01.853Z,100.00
2023-05-12T02:09:28.765Z,100.00
2023-05-12T02:11:59.641Z,100.00
2023-05-12T02:14:26.157Z,100.00
2023-05-12T02:16:55.608Z,100.00
2023-05-12T02:19:23.964Z,100.00
2023-05-12T02:21:50.535Z,100.00
2023-05-12T02:24:17.099Z,100.00
2023-05-12T02:26:44.516Z,100.00
2023-05-12T02:29:12.542Z,100.00
2023-05-12T02:31:39.161Z,100.00
2023-05-12T02:34:15.096Z,100.00
2023-05-12T02:36:41.721Z,100.00
2023-05-12T02:39:08.501Z,100.00
2023-05-12T02:41:35.613Z,100.00
2023-05-12T02:44:02.144Z,100.00
2023-05-12T02:46:28.701Z,100.00
2023-05-12T02:48:55.737Z,100.00
2023-05-12T02:51:22.192Z,100.00
2023-05-12T02:53:49.659Z,100.00
2023-05-12T02:56:17.537Z,100.00
2023-05-12T02:58:43.988Z,100.00
2023-05-12T03:01:11.848Z,100.00
2023-05-12T03:03:40.504Z,100.00
2023-05-12T03:06:07.780Z,100.00
2023-05-12T03:08:34.896Z,100.00
2023-05-12T03:11:02.080Z,100.00
2023-05-12T03:13:28.834Z,100.00
2023-05-12T03:15:55.680Z,100.00
2023-05-12T03:18:22.409Z,100.00
2023-05-12T03:20:50.961Z,100.00
2023-05-12T03:23:17.409Z,100.00
2023-05-12T03:25:43.961Z,100.00
2023-05-12T03:28:11.420Z,100.00
2023-05-12T03:30:38.281Z,100.00
2023-05-12T03:33:04.985Z,100.00
2023-05-12T03:35:31.783Z,100.00
2023-05-12T03:38:01.492Z,100.00
2023-05-12T03:40:28.584Z,100.00
2023-05-12T03:42:55.086Z,100.00
2023-05-12T03:45:21.883Z,100.00
2023-05-12T03:47:48.654Z,100.00
2023-05-12T03:50:15.551Z,100.00
2023-05-12T03:52:42.159Z,100.00
2023-05-12T03:55:09.154Z,100.00
2023-05-12T03:57:36.615Z,100.00
2023-05-12T04:00:05.135Z,100.00
2023-05-12T04:02:39.388Z,100.00
2023-05-12T04:05:08.584Z,100.00
2023-05-12T04:07:35.135Z,100.00
2023-05-12T04:10:01.992Z,100.00
2023-05-12T04:12:28.974Z,100.00
2023-05-12T04:14:55.843Z,100.00
2023-05-12T04:17:23.010Z,100.00
2023-05-12T04:19:49.528Z,100.00
2023-05-12T04:22:16.615Z,100.00
2023-05-12T04:24:43.147Z,100.00
2023-05-12T04:27:09.793Z,100.00
2023-05-12T04:29:36.965Z,100.00
2023-05-12T04:32:03.925Z,100.00
2023-05-12T04:34:30.652Z,100.00
2023-05-12T04:36:57.180Z,100.00
2023-05-12T04:39:23.725Z,100.00
2023-05-12T04:41:50.741Z,100.00
2023-05-12T04:44:18.352Z,100.00
2023-05-12T04:46:45.218Z,100.00
2023-05-12T04:49:11.725Z,100.00
2023-05-12T04:51:42.866Z,100.00
2023-05-12T04:54:10.368Z,100.00
2023-05-12T04:56:37.618Z,100.00
2023-05-12T04:59:04.781Z,100.00
2023-05-12T05:01:31.891Z,100.00
2023-05-12T05:03:58.607Z,100.00
2023-05-12T05:06:25.271Z,100.00
2023-05-12T05:08:53.116Z,100.00
2023-05-12T05:11:19.869Z,100.00
2023-05-12T05:13:46.380Z,100.00
2023-05-12T05:16:13.085Z,100.00
2023-05-12T05:18:42.490Z,100.00
2023-05-12T05:21:09.105Z,100.00
2023-05-12T05:23:36.298Z,100.00
2023-05-12T05:26:02.987Z,100.00
2023-05-12T05:28:29.515Z,100.00
2023-05-12T05:30:56.434Z,100.00
2023-05-12T05:33:23.130Z,100.00
2023-05-12T05:35:50.122Z,100.00
2023-05-12T05:38:16.810Z,100.00
2023-05-12T05:40:52.877Z,100.00
2023-05-12T05:43:21.265Z,100.00
2023-05-12T05:45:49.722Z,100.00
2023-05-12T05:48:16.552Z,100.00
2023-05-12T05:50:43.266Z,100.00
2023-05-12T05:53:09.904Z,100.00
2023-05-12T05:55:36.407Z,100.00
2023-05-12T05:58:02.975Z,100.00
2023-05-12T06:00:29.633Z,100.00
2023-05-12T06:02:56.385Z,100.00
2023-05-12T06:05:23.297Z,100.00
2023-05-12T06:07:49.919Z,100.00
2023-05-12T06:10:16.462Z,100.00
2023-05-12T06:12:43.255Z,100.00
2023-05-12T06:15:10.442Z,100.00
2023-05-12T06:17:37.041Z,100.00
2023-05-12T06:20:05.200Z,100.00
2023-05-12T06:22:31.813Z,100.00
2023-05-12T06:24:58.331Z,100.00
2023-05-12T06:27:24.898Z,100.00
2023-05-12T06:29:52.007Z,100.00
2023-05-12T06:32:18.903Z,100.00
2023-05-12T06:34:45.503Z,100.00
2023-05-12T06:37:12.150Z,100.00
2023-05-12T06:39:38.752Z,100.00
2023-05-12T06:42:06.459Z,100.00
2023-05-12T06:44:42.027Z,100.00
2023-05-12T06:47:09.158Z,100.00
2023-05-12T06:49:37.096Z,100.00
2023-05-12T06:52:04.786Z,100.00
2023-05-12T06:54:31.702Z,100.00
2023-05-12T06:56:58.524Z,100.00
2023-05-12T06:59:25.208Z,100.00
2023-05-12T07:01:51.813Z,100.00
2023-05-12T07:04:18.329Z,100.00
2023-05-12T07:06:44.822Z,100.00
2023-05-12T07:09:11.299Z,100.00
2023-05-12T07:11:38.060Z,100.00
2023-05-12T07:14:04.566Z,100.00
2023-05-12T07:16:31.080Z,100.00
2023-05-12T07:18:57.555Z,100.00
2023-05-12T07:21:24.428Z,100.00
2023-05-12T07:23:50.929Z,100.00
2023-05-12T07:26:18.547Z,100.00
2023-05-12T07:28:45.081Z,100.00
2023-05-12T07:31:11.817Z,100.00
2023-05-12T07:33:38.304Z,100.00
2023-05-12T07:36:05.031Z,99.90
2023-05-12T07:38:32.083Z,99.42
2023-05-12T07:41:00.054Z,98.22
2023-05-12T07:43:26.493Z,98.31
2023-05-12T07:45:54.574Z,95.21
2023-05-12T07:48:21.059Z,93.78
2023-05-12T07:50:47.666Z,92.86
2023-05-12T07:53:14.210Z,91.80
2023-05-12T07:55:41.185Z,88.98
2023-05-12T07:58:07.688Z,87.82
2023-05-12T08:00:34.384Z,87.51
2023-05-12T08:03:00.975Z,86.90
2023-05-12T08:05:27.634Z,87.07
2023-05-12T08:07:54.096Z,86.62
2023-05-12T08:10:20.649Z,85.68
2023-05-12T08:12:47.120Z,84.75
2023-05-12T08:15:13.667Z,83.46
2023-05-12T08:17:40.206Z,82.89
2023-05-12T08:20:07.286Z,83.33
2023-05-12T08:22:33.769Z,80.67
2023-05-12T08:25:00.321Z,80.75
2023-05-12T08:27:26.930Z,80.05
2023-05-12T08:29:53.455Z,79.82
2023-05-12T08:32:19.979Z,78.60
2023-05-12T08:34:46.661Z,78.88
2023-05-12T08:37:13.328Z,78.21
2023-05-12T08:39:39.909Z,77.30
2023-05-12T08:42:30.193Z,78.36
2023-05-12T08:44:59.222Z,75.05
2023-05-12T08:47:26.670Z,73.42
2023-05-12T08:50:01.157Z,74.14
2023-05-12T08:52:29.904Z,74.11
2023-05-12T08:54:56.989Z,72.97
2023-05-12T08:57:23.997Z,72.01
2023-05-12T08:59:54.500Z,72.58
2023-05-12T09:02:25.218Z,71.67
2023-05-12T09:04:52.525Z,70.83
2023-05-12T09:07:19.863Z,70.81
2023-05-12T09:09:52.138Z,69.04
2023-05-12T09:12:19.514Z,66.90
2023-05-12T09:14:51.961Z,67.82
2023-05-12T09:17:18.723Z,67.60
2023-05-12T09:19:45.143Z,66.48
2023-05-12T09:22:14.812Z,67.37
2023-05-12T09:24:41.606Z,65.30
2023-05-12T09:27:08.158Z,65.36
2023-05-12T09:29:45.159Z,65.77
2023-05-12T09:32:18.248Z,65.47
2023-05-12T09:34:44.747Z,62.45
2023-05-12T09:37:12.648Z,62.58
2023-05-12T09:39:40.462Z,63.92
2023-05-12T09:42:12.434Z,62.95
2023-05-12T09:44:39.805Z,63.05
2023-05-12T09:47:07.196Z,63.03
2023-05-12T09:49:33.625Z,63.39
2023-05-12T09:52:00.203Z,64.04
2023-05-12T09:54:28.299Z,64.19
2023-05-12T09:56:59.923Z,62.77
2023-05-12T09:59:34.494Z,62.57
2023-05-12T10:02:02.987Z,61.64
2023-05-12T10:04:45.949Z,59.04
2023-05-12T10:07:14.339Z,58.07
2023-05-12T10:09:42.557Z,57.41
2023-05-12T10:12:10.179Z,57.25
2023-05-12T10:14:40.972Z,56.70
2023-05-12T10:17:09.383Z,56.61
2023-05-12T10:19:36.213Z,55.41
2023-05-12T10:22:03.854Z,56.44
2023-05-12T10:24:30.313Z,56.49
2023-05-12T10:26:57.483Z,56.25
2023-05-12T10:29:32.826Z,56.09
2023-05-12T10:32:01.184Z,55.66
2023-05-12T10:34:33.937Z,55.37
2023-05-12T10:37:00.843Z,54.55
2023-05-12T10:39:32.787Z,54.93
2023-05-12T10:42:05.832Z,54.13
2023-05-12T10:44:32.306Z,52.20
2023-05-12T10:47:02.159Z,52.08
2023-05-12T10:49:39.390Z,52.40
2023-05-12T10:52:07.639Z,51.24
2023-05-12T10:54:44.355Z,52.29
2023-05-12T10:57:18.843Z,50.87
2023-05-12T10:59:57.637Z,53.01
2023-05-12T11:02:32.033Z,52.00
2023-05-12T11:05:07.023Z,53.19
2023-05-12T11:07:35.411Z,51.78
2023-05-12T11:10:05.287Z,50.51
2023-05-12T11:12:33.522Z,49.24
2023-05-12T11:15:01.608Z,48.38
2023-05-12T11:17:28.847Z,47.51
2023-05-12T11:19:55.747Z,48.55
2023-05-12T11:22:23.628Z,48.18
2023-05-12T11:24:51.285Z,48.09
2023-05-12T11:27:19.841Z,47.75
2023-05-12T11:29:59.580Z,48.86
2023-05-12T11:32:26.768Z,47.91
2023-05-12T11:34:53.385Z,47.86
2023-05-12T11:37:27.192Z,48.83
2023-05-12T11:39:53.849Z,47.61
2023-05-12T11:42:22.783Z,47.57
2023-05-12T11:44:50.885Z,47.12
2023-05-12T11:47:19.809Z,48.05
2023-05-12T11:49:48.582Z,47.52
2023-05-12T11:52:15.829Z,45.84
2023-05-12T11:55:11.543Z,47.18
2023-05-12T11:57:38.185Z,46.03
2023-05-12T12:00:07.638Z,47.31
2023-05-12T12:02:36.715Z,46.84
2023-05-12T12:05:03.526Z,46.16
2023-05-12T12:07:34.978Z,45.82
2023-05-12T12:10:14.704Z,45.83
2023-05-12T12:12:42.145Z,45.33
2023-05-12T12:15:09.999Z,44.34
2023-05-12T12:17:36.728Z,44.43
2023-05-12T12:20:03.486Z,45.67
2023-05-12T12:22:34.168Z,45.25
2023-05-12T12:25:02.304Z,44.67
2023-05-12T12:27:28.754Z,46.46
2023-05-12T12:29:55.354Z,45.02
2023-05-12T12:32:21.802Z,45.64
2023-05-12T12:34:49.035Z,47.01
2023-05-12T12:37:16.144Z,45.69
2023-05-12T12:39:42.804Z,46.72
2023-05-12T12:42:09.551Z,45.40
2023-05-12T12:44:36.045Z,45.42
2023-05-12T12:47:02.608Z,45.79
2023-05-12T12:49:29.039Z,45.38
2023-05-12T12:51:55.959Z,46.54
2023-05-12T12:54:22.550Z,46.17
2023-05-12T12:56:49.103Z,46.47
2023-05-12T12:59:15.556Z,45.59
2023-05-12T13:01:42.865Z,45.75
2023-05-12T13:04:09.483Z,44.94
2023-05-12T13:06:36.049Z,45.51
2023-05-12T13:09:03.865Z,44.51
2023-05-12T13:11:30.424Z,44.39
2023-05-12T13:13:56.893Z,45.29
2023-05-12T13:16:26.338Z,46.59
2023-05-12T13:18:52.877Z,44.82
2023-05-12T13:21:19.439Z,45.58
2023-05-12T13:23:45.921Z,45.98
2023-05-12T13:26:12.417Z,46.03
2023-05-12T13:28:38.894Z,46.35
2023-05-12T13:31:06.086Z,45.93
2023-05-12T13:33:32.764Z,47.39
2023-05-12T13:35:59.349Z,48.19
2023-05-12T13:38:26.294Z,46.53
2023-05-12T13:40:52.974Z,46.89
2023-05-12T13:43:19.467Z,45.60
2023-05-12T13:45:45.976Z,46.39
2023-05-12T13:48:12.547Z,46.41
2023-05-12T13:50:39.209Z,45.76
2023-05-12T13:53:06.521Z,46.46
2023-05-12T13:55:34.271Z,44.74
2023-05-12T13:58:00.920Z,45.15
2023-05-12T14:00:29.717Z,44.57
2023-05-12T14:02:57.735Z,44.54
2023-05-12T14:05:24.543Z,44.72
2023-05-12T14:07:51.254Z,43.85
2023-05-12T14:10:18.565Z,43.41
2023-05-12T14:12:45.137Z,42.85
2023-05-12T14:17:46.410Z,43.65
2023-05-12T14:20:13.081Z,42.86
2023-05-12T14:22:39.629Z,42.49
2023-05-12T14:25:06.445Z,43.64
2023-05-12T14:27:32.876Z,44.78
2023-05-12T14:29:59.341Z,43.44
2023-05-12T14:32:25.838Z,43.63
2023-05-12T14:34:52.358Z,43.08
2023-05-12T14:37:18.876Z,44.27
2023-05-12T14:39:45.425Z,43.22
2023-05-12T14:42:11.901Z,42.54
2023-05-12T14:44:38.339Z,43.79
2023-05-12T14:47:05.923Z,44.52
2023-05-12T14:49:33.941Z,44.28
2023-05-12T14:52:00.344Z,44.06
2023-05-12T14:54:26.855Z,42.91
2023-05-12T14:56:53.395Z,42.13
2023-05-12T14:59:19.826Z,42.68
2023-05-12T15:01:46.477Z,42.58
2023-05-12T15:04:13.266Z,42.59
2023-05-12T15:06:40.064Z,41.73
2023-05-12T15:09:07.210Z,42.23
2023-05-12T15:11:33.763Z,40.69
2023-05-12T15:14:00.258Z,41.99
2023-05-12T15:16:27.994Z,42.39
2023-05-12T15:18:54.688Z,43.49
2023-05-12T15:21:21.264Z,42.82
2023-05-12T15:23:47.803Z,42.65
2023-05-12T15:26:31.444Z,42.52
2023-05-12T15:28:59.858Z,43.04
2023-05-12T15:31:28.991Z,43.27
2023-05-12T15:33:59.268Z,42.41
2023-05-12T15:36:25.913Z,41.24
2023-05-12T15:38:52.395Z,40.25
2023-05-12T15:41:18.868Z,40.40
2023-05-12T15:43:45.336Z,41.03
2023-05-12T15:46:11.939Z,43.28
2023-05-12T15:48:39.321Z,48.59
2023-05-12T15:51:07.818Z,52.68
2023-05-12T15:53:34.501Z,52.13
2023-05-12T15:56:05.191Z,54.95
2023-05-12T15:58:32.073Z,59.11
2023-05-12T16:00:59.022Z,60.61
2023-05-12T16:03:25.653Z,61.80
2023-05-12T16:05:52.515Z,67.37
2023-05-12T16:08:19.103Z,68.82
2023-05-12T16:10:45.716Z,68.58
2023-05-12T16:13:12.179Z,68.41
2023-05-12T16:15:38.618Z,69.50
2023-05-12T16:18:07.513Z,68.43
2023-05-12T16:20:35.814Z,65.49
2023-05-12T16:23:02.601Z,66.76
2023-05-12T16:25:29.123Z,68.41
2023-05-12T16:27:55.914Z,68.36
2023-05-12T16:30:22.701Z,67.63
2023-05-12T16:32:49.273Z,68.35
2023-05-12T16:35:15.905Z,67.84
2023-05-12T16:37:42.685Z,67.68
2023-05-12T16:40:09.686Z,67.68
2023-05-12T16:42:37.141Z,67.71
2023-05-12T16:45:03.751Z,67.92
2023-05-12T16:47:30.247Z,67.76
2023-05-12T16:49:58.093Z,68.49
2023-05-12T16:52:25.499Z,67.92
2023-05-12T16:54:53.111Z,68.59
2023-05-12T16:57:20.133Z,69.45
2023-05-12T16:59:48.264Z,67.90
2023-05-12T17:02:15.085Z,69.75
2023-05-12T17:04:41.709Z,69.22
2023-05-12T17:07:08.252Z,68.37
2023-05-12T17:09:34.828Z,65.92
2023-05-12T17:12:01.591Z,65.14
2023-05-12T17:14:28.220Z,65.48
2023-05-12T17:16:54.838Z,65.12
2023-05-12T17:19:22.089Z,64.16
2023-05-12T17:21:48.879Z,64.79
2023-05-12T17:24:15.456Z,64.28
2023-05-12T17:26:42.132Z,64.36
2023-05-12T17:29:08.632Z,64.48
2023-05-12T17:31:35.239Z,63.49
2023-05-12T17:34:01.782Z,62.75
2023-05-12T17:36:28.879Z,64.46
2023-05-12T17:38:55.441Z,64.04
2023-05-12T17:41:21.916Z,63.86
2023-05-12T17:43:48.464Z,64.41
2023-05-12T17:46:14.986Z,64.61
2023-05-12T17:48:41.505Z,64.58
2023-05-12T17:51:08.119Z,65.09
2023-05-12T17:53:34.987Z,65.73
2023-05-12T17:56:01.633Z,64.92
2023-05-12T17:58:28.096Z,65.40
2023-05-12T18:00:55.644Z,66.04
2023-05-12T18:03:25.098Z,64.59
2023-05-12T18:05:53.273Z,65.05
2023-05-12T18:08:20.694Z,64.60
2023-05-12T18:10:47.479Z,64.45
2023-05-12T18:13:15.360Z,63.74
2023-05-12T18:15:42.448Z,64.49
2023-05-12T18:18:10.075Z,64.17
2023-05-12T18:20:37.236Z,63.05
2023-05-12T18:23:03.828Z,62.47
2023-05-12T18:25:30.280Z,61.34
2023-05-12T18:27:56.757Z,61.10
2023-05-12T18:30:23.312Z,60.42
2023-05-12T18:32:50.361Z,58.71
2023-05-12T18:35:16.941Z,57.04
2023-05-12T18:37:43.828Z,57.01
2023-05-12T18:40:11.175Z,57.38
2023-05-12T18:42:38.338Z,58.66
2023-05-12T18:45:05.468Z,62.08
2023-05-12T18:47:32.318Z,60.78
2023-05-12T18:49:59.082Z,63.09
2023-05-12T18:52:25.683Z,62.80
2023-05-12T18:54:52.078Z,60.52
2023-05-12T18:57:18.822Z,64.31
2023-05-12T18:59:45.473Z,65.57
2023-05-12T19:02:12.076Z,67.87
2023-05-12T19:04:39.103Z,69.84
2023-05-12T19:07:09.248Z,71.53
2023-05-12T19:09:36.654Z,72.64
2023-05-12T19:12:05.711Z,73.77
2023-05-12T19:14:32.293Z,74.14
2023-05-12T19:16:58.808Z,75.69
2023-05-12T19:19:25.343Z,75.84
2023-05-12T19:21:52.477Z,76.03
2023-05-12T19:24:19.328Z,76.42
2023-05-12T19:26:45.711Z,77.52
2023-05-12T19:29:12.212Z,76.82
2023-05-12T19:31:38.791Z,78.10
2023-05-12T19:34:05.408Z,78.60
2023-05-12T19:36:31.965Z,78.94
2023-05-12T19:39:00.232Z,79.65
2023-05-12T19:41:27.811Z,79.16
2023-05-12T19:43:55.326Z,80.53
2023-05-12T19:46:22.353Z,78.60
2023-05-12T19:48:48.989Z,76.49
2023-05-12T19:51:15.449Z,77.39
2023-05-12T19:53:43.595Z,74.71
2023-05-12T19:56:10.133Z,72.91
2023-05-12T19:58:36.584Z,72.76
2023-05-12T20:01:03.086Z,71.59
2023-05-12T20:03:29.664Z,71.78
2023-05-12T20:05:56.264Z,71.65
2023-05-12T20:08:22.696Z,71.41
2023-05-12T20:10:49.148Z,71.15
2023-05-12T20:13:15.598Z,71.64
2023-05-12T20:15:43.948Z,71.48
2023-05-12T20:18:12.567Z,71.97
2023-05-12T20:20:39.095Z,72.07
2023-05-12T20:23:05.713Z,71.90
2023-05-12T20:25:33.153Z,71.39
2023-05-12T20:27:59.848Z,72.00
2023-05-12T20:30:26.768Z,72.05
2023-05-12T20:32:53.437Z,72.00
2023-05-12T20:35:20.431Z,72.31
2023-05-12T20:37:47.280Z,72.58
2023-05-12T20:40:13.889Z,73.06
2023-05-12T20:42:40.483Z,73.15
2023-05-12T20:45:07.586Z,72.74
2023-05-12T20:47:34.818Z,73.02
2023-05-12T20:50:05.472Z,73.60
2023-05-12T20:52:33.535Z,73.39
2023-05-12T20:55:00.449Z,73.89
2023-05-12T20:57:27.215Z,73.66
2023-05-12T20:59:56.549Z,74.26
2023-05-12T21:02:27.635Z,72.77
2023-05-12T21:04:54.839Z,73.06
2023-05-12T21:07:21.256Z,73.18
2023-05-12T21:09:47.863Z,72.46
2023-05-12T21:12:14.418Z,72.67
2023-05-12T21:14:42.554Z,72.38
2023-05-12T21:17:10.383Z,72.04
2023-05-12T21:19:37.981Z,72.14
2023-05-12T21:22:05.815Z,72.37
2023-05-12T21:24:33.119Z,72.00
2023-05-12T21:27:03.653Z,71.99
2023-05-12T21:29:32.294Z,71.71
2023-05-12T21:31:59.445Z,71.77
2023-05-12T21:34:26.108Z,71.96
2023-05-12T21:36:52.892Z,71.84
2023-05-12T21:39:19.313Z,72.12
2023-05-12T21:41:45.971Z,72.31
2023-05-12T21:44:12.694Z,72.10
2023-05-12T21:46:39.187Z,72.14
2023-05-12T21:49:05.720Z,72.32
2023-05-12T21:51:33.158Z,72.37
2023-05-12T21:54:00.044Z,72.26
2023-05-12T21:56:26.787Z,72.75
2023-05-12T21:58:53.285Z,72.62
2023-05-12T22:01:19.830Z,72.26
2023-05-12T22:03:46.417Z,72.61
2023-05-12T22:06:12.970Z,72.40
2023-05-12T22:08:39.512Z,72.62
2023-05-12T22:11:06.100Z,72.71
2023-05-12T22:13:32.573Z,72.45
2023-05-12T22:15:59.950Z,72.74
2023-05-12T22:18:26.447Z,71.89
2023-05-12T22:20:52.929Z,71.99
2023-05-12T22:23:19.329Z,72.22
2023-05-12T22:25:45.873Z,72.02
2023-05-12T22:28:12.299Z,71.93
2023-05-12T22:30:38.726Z,71.67
2023-05-12T22:33:05.271Z,71.82
2023-05-12T22:35:31.706Z,71.93
2023-05-12T22:37:58.217Z,71.28
2023-05-12T22:40:26.923Z,71.29
2023-05-12T22:42:53.430Z,70.75
2023-05-12T22:45:20.037Z,70.31
2023-05-12T22:47:46.677Z,69.70
2023-05-12T22:50:13.358Z,70.11
2023-05-12T22:52:39.917Z,70.01
2023-05-12T22:55:06.861Z,70.00
2023-05-12T22:57:33.354Z,69.91
2023-05-12T23:00:00.243Z,69.54
2023-05-12T23:02:26.759Z,69.62
2023-05-12T23:04:53.236Z,69.21
2023-05-12T23:07:19.637Z,68.45
2023-05-12T23:09:46.148Z,68.17
2023-05-12T23:12:12.617Z,68.29
2023-05-12T23:14:39.099Z,67.57
2023-05-12T23:17:05.877Z,67.81
2023-05-12T23:19:32.420Z,67.04
2023-05-12T23:21:58.947Z,67.72
2023-05-12T23:24:25.489Z,67.52
2023-05-12T23:26:52.439Z,67.84
2023-05-12T23:29:18.952Z,67.50
2023-05-12T23:31:45.512Z,67.26
2023-05-12T23:34:12.419Z,67.52
2023-05-12T23:36:38.955Z,67.37
2023-05-12T23:39:05.477Z,67.21
2023-05-12T23:41:33.870Z,67.36
2023-05-12T23:44:00.340Z,66.29
2023-05-12T23:46:26.973Z,66.71
2023-05-12T23:48:55.567Z,66.38
2023-05-12T23:51:22.902Z,65.24
2023-05-12T23:53:49.423Z,64.99
2023-05-12T23:56:15.880Z,65.20
2023-05-12T23:58:42.501Z,65.44
